Time;durP1;ratioP1;P1;durP2;ratioP2;P2;SDS_P1;SDS_P2;PMS_P1;PMS_P2;Temp;Humidity;BMP_temperature;BMP_pressure;BME280_temperature;BME280_humidity;BME280_pressure;Samples;Min_cycle;Max_cycle;Signal;HPM_P1;HPM_P2
2022/01/12 00:01:25;;;;;;;18.23;9.10;;;4.90;91.20;;;;;;1924798;74;21027;-44
2022/01/12 00:03:54;;;;;;;13.20;7.40;;;4.90;91.20;;;;;;1924621;74;21022;-45
2022/01/12 00:06:24;;;;;;;14.50;8.80;;;4.80;91.10;;;;;;1924737;74;21046;-44
2022/01/12 00:08:53;;;;;;;12.82;6.15;;;4.80;91.20;;;;;;1924673;74;21019;-46
2022/01/12 00:11:23;;;;;;;16.82;9.40;;;4.80;91.20;;;;;;1924727;74;20994;-46
2022/01/12 00:13:53;;;;;;;14.05;8.38;;;4.80;91.30;;;;;;1924689;74;21081;-45
2022/01/12 00:16:22;;;;;;;16.17;9.50;;;4.80;91.30;;;;;;1924659;74;21108;-46
2022/01/12 00:18:51;;;;;;;17.12;9.93;;;4.80;91.30;;;;;;1924732;74;21127;-45
2022/01/12 00:21:20;;;;;;;17.32;8.68;;;4.80;91.30;;;;;;1924779;74;21069;-45
2022/01/12 00:23:50;;;;;;;16.85;9.48;;;4.80;91.30;;;;;;1924766;74;20995;-45
2022/01/12 00:34:39;;;;;;;13.15;7.22;;;4.80;91.30;;;;;;1924800;74;21088;-45
2022/01/12 00:37:08;;;;;;;14.18;8.55;;;4.70;91.10;;;;;;1924718;74;21027;-45
2022/01/12 00:39:37;;;;;;;14.07;8.25;;;4.70;91.10;;;;;;1924786;74;21014;-45
2022/01/12 00:42:11;;;;;;;7.83;5.10;;;4.70;91.20;;;;;;1924707;74;21018;-44
2022/01/12 00:44:43;;;;;;;9.45;5.15;;;4.70;91.00;;;;;;1924683;73;21039;-44
2022/01/12 00:47:09;;;;;;;12.28;7.87;;;4.70;91.10;;;;;;1924441;74;21116;-45
2022/01/12 00:49:39;;;;;;;15.90;7.20;;;4.60;91.20;;;;;;1924809;74;21019;-45
2022/01/12 00:52:08;;;;;;;8.28;4.33;;;4.60;91.20;;;;;;1924837;74;21100;-46
2022/01/12 00:54:38;;;;;;;15.10;8.30;;;4.60;91.20;;;;;;1924799;74;21019;-45
2022/01/12 00:57:07;;;;;;;13.35;6.67;;;4.60;91.30;;;;;;1924867;74;21026;-44
2022/01/12 00:59:37;;;;;;;12.75;6.25;;;4.60;91.20;;;;;;1924882;74;21081;-44
2022/01/12 01:02:07;;;;;;;14.78;8.28;;;4.60;91.20;;;;;;1924813;74;21084;-44
2022/01/12 01:04:36;;;;;;;15.10;8.25;;;4.60;91.40;;;;;;1924864;74;21022;-45
2022/01/12 01:07:06;;;;;;;10.25;6.00;;;4.70;91.30;;;;;;1924763;74;21093;-45
2022/01/12 01:09:39;;;;;;;16.42;8.75;;;4.60;91.20;;;;;;1924839;74;21086;-44
2022/01/12 01:12:06;;;;;;;12.93;7.50;;;4.50;91.10;;;;;;1924541;74;21084;-45
2022/01/12 01:25:51;;;;;;;16.05;7.35;;;4.50;91.20;;;;;;1919756;74;21059;-45
2022/01/12 01:28:23;;;;;;;14.43;6.55;;;4.50;91.20;;;;;;1905232;74;21079;-44
2022/01/12 01:30:53;;;;;;;16.90;9.48;;;4.50;91.20;;;;;;1905522;75;21003;-45
2022/01/12 01:33:22;;;;;;;18.23;9.40;;;4.50;91.20;;;;;;1905436;75;21097;-44
2022/01/12 01:35:57;;;;;;;11.80;6.95;;;4.50;91.10;;;;;;1905355;75;21087;-45
2022/01/12 01:38:27;;;;;;;10.43;6.42;;;4.50;91.20;;;;;;1905646;75;21019;-46
2022/01/12 01:40:56;;;;;;;15.95;8.65;;;4.40;91.20;;;;;;1905308;74;21093;-45
2022/01/12 01:44:07;;;;;;;14.95;8.68;;;4.50;91.40;;;;;;1905492;75;21109;-46
2022/01/12 01:54:20;;;;;;;12.23;8.30;;;4.50;91.40;;;;;;1905395;75;21028;-45
2022/01/12 01:56:51;;;;;;;11.45;5.15;;;4.60;91.30;;;;;;1905385;74;21109;-45
2022/01/12 01:59:20;;;;;;;11.50;7.28;;;4.60;91.10;;;;;;1905412;74;21084;-46
2022/01/12 02:01:50;;;;;;;13.43;7.58;;;4.60;91.10;;;;;;1905339;75;21015;-45
2022/01/12 02:04:19;;;;;;;10.43;7.03;;;4.60;91.10;;;;;;1905487;75;21084;-45
2022/01/12 02:06:49;;;;;;;12.28;7.15;;;4.50;91.00;;;;;;1905342;75;21109;-46
2022/01/12 02:09:19;;;;;;;18.23;8.80;;;4.50;91.10;;;;;;1905392;75;21000;-44
2022/01/12 02:12:06;;;;;;;18.62;9.18;;;4.40;91.10;;;;;;1904241;74;21126;-45
2022/01/12 02:14:36;;;;;;;17.82;9.48;;;4.40;91.10;;;;;;1905542;74;21031;-44
2022/01/12 02:17:16;;;;;;;15.48;7.58;;;4.50;91.30;;;;;;1905423;75;20991;-45
2022/01/12 02:19:54;;;;;;;14.30;8.53;;;4.50;91.20;;;;;;1904833;74;21043;-44
2022/01/12 02:36:30;;;;;;;8.78;5.97;;;4.50;91.10;;;;;;1924786;74;21152;-44
2022/01/12 02:41:45;;;;;;;16.93;9.15;;;4.50;91.00;;;;;;1924835;74;21092;-44
2022/01/12 02:55:11;;;;;;;12.15;6.65;;;4.60;91.10;;;;;;1924896;74;21093;-44
2022/01/12 02:57:40;;;;;;;11.18;6.72;;;4.60;91.20;;;;;;1924773;74;21021;-44
2022/01/12 03:00:14;;;;;;;10.55;6.50;;;4.60;90.90;;;;;;1924971;74;21458;-45
2022/01/12 03:02:43;;;;;;;7.87;5.87;;;4.50;90.70;;;;;;1924727;73;21084;-44
2022/01/12 03:08:10;;;;;;;16.25;9.15;;;4.30;90.80;;;;;;1924789;74;21092;-45
2022/01/12 03:10:32;;;;;;;13.22;7.72;;;4.30;90.90;;;;;;1923814;74;21120;-44
2022/01/12 03:13:02;;;;;;;8.83;6.15;;;4.30;91.00;;;;;;1924924;74;21022;-44
2022/01/12 03:15:39;;;;;;;12.45;7.67;;;4.20;91.30;;;;;;1924725;74;21087;-44
2022/01/12 03:18:02;;;;;;;9.45;6.30;;;4.30;91.00;;;;;;1923988;74;21477;-45
2022/01/12 03:20:31;;;;;;;10.28;7.47;;;4.20;90.90;;;;;;1924682;74;21026;-43
2022/01/12 03:23:00;;;;;;;12.73;7.20;;;4.20;91.00;;;;;;1924779;74;21501;-44
2022/01/12 03:25:30;;;;;;;9.48;6.15;;;4.20;91.00;;;;;;1924721;74;21050;-46
2022/01/12 03:28:02;;;;;;;13.25;7.53;;;4.20;91.00;;;;;;1924703;74;21058;-44
2022/01/12 03:30:37;;;;;;;8.35;5.28;;;4.20;90.90;;;;;;1924652;74;20995;-44
2022/01/12 03:33:10;;;;;;;12.60;7.17;;;4.20;90.90;;;;;;1924197;74;21085;-43
2022/01/12 03:36:12;;;;;;;12.58;6.92;;;4.10;90.80;;;;;;1923889;74;21084;-44
2022/01/12 03:38:21;;;;;;;9.10;6.22;;;4.10;91.00;;;;;;1921603;74;21046;-45
2022/01/12 03:40:51;;;;;;;10.65;6.90;;;4.20;91.00;;;;;;1924754;74;21099;-45
2022/01/12 03:43:21;;;;;;;11.75;6.67;;;4.20;91.00;;;;;;1924796;74;21023;-45
2022/01/12 03:45:50;;;;;;;9.05;5.97;;;4.20;91.00;;;;;;1924739;74;21082;-47
2022/01/12 03:48:20;;;;;;;9.88;5.50;;;4.20;91.00;;;;;;1924686;74;21046;-45
2022/01/12 03:50:50;;;;;;;13.15;6.65;;;4.20;91.10;;;;;;1924695;74;21023;-45
2022/01/12 03:53:19;;;;;;;9.18;7.17;;;4.20;91.20;;;;;;1924742;74;21088;-45
2022/01/12 03:55:50;;;;;;;11.03;5.90;;;4.20;90.90;;;;;;1924694;74;21089;-46
2022/01/12 03:58:19;;;;;;;10.80;6.08;;;4.20;91.00;;;;;;1924919;74;21214;-45
2022/01/12 04:00:49;;;;;;;8.35;5.90;;;4.20;91.00;;;;;;1924698;74;21109;-45
2022/01/12 04:03:19;;;;;;;8.70;6.17;;;4.20;91.00;;;;;;1924720;74;21072;-45
2022/01/12 04:08:37;;;;;;;10.13;5.50;;;4.10;90.80;;;;;;1923379;74;21062;-45
2022/01/12 04:11:06;;;;;;;10.80;7.72;;;4.10;91.00;;;;;;1924664;74;21018;-45
2022/01/12 04:13:36;;;;;;;8.08;5.92;;;4.10;91.00;;;;;;1903926;74;21092;-45
2022/01/12 04:16:07;;;;;;;12.23;6.90;;;4.10;90.90;;;;;;1904062;74;20982;-46
2022/01/12 04:18:36;;;;;;;10.88;6.90;;;4.10;91.00;;;;;;1924675;74;21042;-46
2022/01/12 04:21:08;;;;;;;15.65;8.98;;;4.10;91.00;;;;;;1924728;74;21084;-45
2022/01/12 04:23:38;;;;;;;10.72;6.90;;;4.00;90.70;;;;;;1924567;74;20995;-46
2022/01/12 04:26:10;;;;;;;11.90;7.58;;;4.00;91.10;;;;;;1924606;74;20995;-45
2022/01/12 04:28:42;;;;;;;11.10;7.00;;;4.00;91.10;;;;;;1910659;74;21063;-45
2022/01/12 04:31:13;;;;;;;11.80;5.80;;;4.00;91.50;;;;;;1905279;75;21027;-45
2022/01/12 04:33:44;;;;;;;10.45;6.42;;;4.10;90.90;;;;;;1905258;75;21023;-45
2022/01/12 04:36:14;;;;;;;10.63;6.30;;;4.00;90.70;;;;;;1905369;75;21098;-45
2022/01/12 04:38:45;;;;;;;12.58;8.03;;;4.00;90.70;;;;;;1905360;75;21043;-46
2022/01/12 04:41:14;;;;;;;11.00;6.83;;;4.00;91.10;;;;;;1905224;75;21074;-46
2022/01/12 04:43:45;;;;;;;12.30;6.62;;;4.00;90.90;;;;;;1905097;74;21054;-46
2022/01/12 04:48:53;;;;;;;13.28;7.92;;;3.90;91.10;;;;;;1905289;75;21012;-45
2022/01/12 04:51:20;;;;;;;10.73;6.67;;;3.90;91.20;;;;;;1905453;74;21020;-45
2022/01/12 04:53:50;;;;;;;14.23;9.18;;;4.00;91.30;;;;;;1905272;75;21022;-45
2022/01/12 04:56:20;;;;;;;17.25;8.28;;;4.00;91.30;;;;;;1905249;75;21000;-47
2022/01/12 04:58:49;;;;;;;15.53;8.20;;;4.00;91.00;;;;;;1905327;75;21069;-46
2022/01/12 05:01:24;;;;;;;11.50;7.00;;;4.00;90.80;;;;;;1905211;75;21085;-45
2022/01/12 05:09:42;;;;;;;16.95;9.40;;;3.80;90.50;;;;;;1892478;75;21047;-46
2022/01/12 05:14:57;;;;;;;20.17;9.15;;;3.80;90.90;;;;;;1905277;74;21109;-44
2022/01/12 05:17:16;;;;;;;10.40;6.10;;;3.80;90.90;;;;;;1904144;74;21059;-46
2022/01/12 05:19:45;;;;;;;16.73;9.30;;;3.80;90.40;;;;;;1905281;75;21011;-46
2022/01/12 05:22:15;;;;;;;16.62;9.63;;;3.80;90.80;;;;;;1905410;75;21066;-45
2022/01/12 05:24:44;;;;;;;15.58;9.03;;;3.80;90.60;;;;;;1905399;75;21121;-44
2022/01/12 05:27:13;;;;;;;16.55;10.03;;;3.80;90.30;;;;;;1905520;75;21027;-45
2022/01/12 05:29:43;;;;;;;16.95;8.78;;;3.70;90.50;;;;;;1905353;74;21117;-46
2022/01/12 05:32:12;;;;;;;17.62;10.43;;;3.70;90.50;;;;;;1905454;75;21527;-46
2022/01/12 05:34:43;;;;;;;15.78;8.83;;;3.70;90.70;;;;;;1905358;75;21070;-45
2022/01/12 05:37:13;;;;;;;21.50;11.43;;;3.70;90.70;;;;;;1905359;75;21172;-45
2022/01/12 05:39:42;;;;;;;21.62;11.20;;;3.70;90.30;;;;;;1905378;75;21031;-46
2022/01/12 05:42:12;;;;;;;19.17;10.58;;;3.60;90.70;;;;;;1905293;74;21081;-45
2022/01/12 05:44:42;;;;;;;20.70;13.08;;;3.60;90.90;;;;;;1905392;74;21031;-45
2022/01/12 05:47:30;;;;;;;28.95;15.83;;;3.60;90.60;;;;;;1905677;75;20987;-45
2022/01/12 05:49:45;;;;;;;24.20;12.93;;;3.60;90.80;;;;;;1903728;74;21048;-46
2022/01/12 05:52:14;;;;;;;20.20;11.35;;;3.60;90.80;;;;;;1905527;75;21047;-46
2022/01/12 05:54:43;;;;;;;20.82;11.15;;;3.60;91.00;;;;;;1905458;75;21043;-46
2022/01/12 05:57:13;;;;;;;19.02;11.57;;;3.60;90.90;;;;;;1905533;75;21100;-45
2022/01/12 05:59:43;;;;;;;18.82;10.45;;;3.60;91.20;;;;;;1905423;75;21024;-45
2022/01/12 06:30:14;;;;;;;30.12;15.23;;;3.90;90.80;;;;;;1973820;73;22109;-45
2022/01/12 06:32:33;;;;;;;23.55;14.10;;;4.40;91.20;;;;;;1946461;73;21050;-45
2022/01/12 06:35:02;;;;;;;26.02;15.25;;;4.30;91.00;;;;;;1949240;73;20999;-44
2022/01/12 06:37:31;;;;;;;27.75;15.05;;;4.30;91.10;;;;;;1949121;73;21019;-46
2022/01/12 06:40:01;;;;;;;14.25;9.45;;;4.30;91.30;;;;;;1949108;73;21113;-45
2022/01/12 06:42:30;;;;;;;22.95;12.37;;;4.20;90.20;;;;;;1949357;73;20991;-45
2022/01/12 06:45:00;;;;;;;23.92;13.55;;;4.10;90.30;;;;;;1949356;73;21074;-45
2022/01/12 06:47:29;;;;;;;24.27;13.95;;;4.00;90.70;;;;;;1949237;73;21316;-45
2022/01/12 06:49:59;;;;;;;23.27;14.00;;;4.00;90.80;;;;;;1949143;73;21043;-44
2022/01/12 06:52:28;;;;;;;25.85;14.13;;;4.00;90.80;;;;;;1949172;73;21137;-45
2022/01/12 06:54:57;;;;;;;25.85;15.00;;;3.90;90.90;;;;;;1949200;73;21022;-44
2022/01/12 06:57:27;;;;;;;25.08;12.15;;;3.90;90.80;;;;;;1949253;73;21026;-44
2022/01/12 06:59:56;;;;;;;22.17;12.00;;;3.90;90.10;;;;;;1949081;73;21018;-44
2022/01/12 07:02:28;;;;;;;18.07;11.43;;;3.80;90.20;;;;;;1949063;73;21050;-44
2022/01/12 07:04:58;;;;;;;26.07;16.00;;;3.70;88.50;;;;;;1949137;73;21022;-46
2022/01/12 07:07:28;;;;;;;30.70;16.77;;;3.50;89.00;;;;;;1949134;73;21100;-45
2022/01/12 07:10:00;;;;;;;28.07;15.20;;;3.40;88.70;;;;;;1948641;73;21137;-44
2022/01/12 07:12:31;;;;;;;28.47;16.87;;;3.30;89.70;;;;;;1912452;73;21421;-45
2022/01/12 07:15:00;;;;;;;30.70;17.50;;;3.30;90.20;;;;;;1949147;73;21027;-44
2022/01/12 07:17:31;;;;;;;31.05;17.77;;;3.30;90.40;;;;;;1949077;73;20991;-45
2022/01/12 07:20:02;;;;;;;27.20;14.73;;;3.30;90.30;;;;;;1949043;73;21027;-46
2022/01/12 07:22:33;;;;;;;20.12;12.65;;;3.30;90.40;;;;;;1912367;73;21015;-44
2022/01/12 07:25:02;;;;;;;29.63;16.40;;;3.30;90.10;;;;;;1949208;73;20995;-44
2022/01/12 07:27:31;;;;;;;33.78;15.45;;;3.30;90.40;;;;;;1949089;73;21019;-44
2022/01/12 07:30:01;;;;;;;22.07;13.32;;;3.30;90.30;;;;;;1949361;73;21055;-45
2022/01/12 07:32:31;;;;;;;27.35;14.15;;;3.30;90.20;;;;;;1949465;73;21078;-45
2022/01/12 07:35:00;;;;;;;22.67;12.33;;;3.30;90.50;;;;;;1949355;73;21167;-45
2022/01/12 07:37:30;;;;;;;16.00;10.05;;;3.30;90.50;;;;;;1949438;73;21066;-44
2022/01/12 07:39:59;;;;;;;19.75;11.40;;;3.40;90.10;;;;;;1949034;73;21100;-45
2022/01/12 07:42:29;;;;;;;15.32;10.20;;;3.30;90.00;;;;;;1948650;74;21018;-44
2022/01/12 07:45:03;;;;;;;17.50;11.00;;;3.20;89.60;;;;;;1948699;74;21019;-44
2022/01/12 07:47:32;;;;;;;18.12;11.97;;;3.20;90.40;;;;;;1947358;74;21096;-44
2022/01/12 07:50:03;;;;;;;11.12;7.62;;;3.20;90.10;;;;;;1948641;74;21015;-44
2022/01/12 07:52:33;;;;;;;16.82;11.30;;;3.10;90.00;;;;;;1948756;73;21514;-45
2022/01/12 07:55:02;;;;;;;21.93;14.95;;;3.00;89.80;;;;;;1948738;74;21015;-44
2022/01/12 07:57:31;;;;;;;19.00;11.43;;;3.00;90.40;;;;;;1948720;74;21054;-44
2022/01/12 08:00:03;;;;;;;14.07;10.70;;;3.00;90.40;;;;;;1948626;74;21143;-44
2022/01/12 08:02:33;;;;;;;21.95;13.20;;;3.00;90.60;;;;;;1946865;74;21033;-45
2022/01/12 08:05:03;;;;;;;23.42;13.72;;;3.00;90.70;;;;;;1948763;74;20999;-45
2022/01/12 08:07:36;;;;;;;19.82;12.23;;;3.10;90.80;;;;;;1948641;73;21171;-45
2022/01/12 08:10:05;;;;;;;13.75;8.10;;;3.10;90.70;;;;;;1948589;74;21023;-48
2022/01/12 08:12:35;;;;;;;21.30;12.47;;;3.20;90.30;;;;;;1948326;74;21019;-45
2022/01/12 08:15:09;;;;;;;17.80;12.13;;;3.20;90.20;;;;;;1948696;73;21023;-44
2022/01/12 08:17:38;;;;;;;21.17;14.38;;;3.20;90.40;;;;;;1949002;74;21084;-44
2022/01/12 08:20:17;;;;;;;22.80;14.40;;;3.20;90.50;;;;;;1948657;74;21023;-45
2022/01/12 08:22:44;;;;;;;17.75;12.33;;;3.20;90.60;;;;;;1948262;74;21124;-44
2022/01/12 08:25:13;;;;;;;22.42;14.33;;;3.20;90.50;;;;;;1948823;74;21019;-44
2022/01/12 08:27:43;;;;;;;21.07;12.80;;;3.20;90.50;;;;;;1948628;73;21088;-45
2022/01/12 08:30:27;;;;;;;21.77;12.43;;;3.20;90.60;;;;;;1940897;73;21105;-44
2022/01/12 08:32:51;;;;;;;12.03;7.83;;;3.20;89.60;;;;;;1932229;74;21117;-44
2022/01/12 08:35:21;;;;;;;19.77;13.67;;;3.20;89.30;;;;;;1935770;74;21000;-46
2022/01/12 08:37:51;;;;;;;22.82;12.37;;;3.20;90.20;;;;;;1934083;74;21213;-45
2022/01/12 08:40:21;;;;;;;8.53;6.20;;;3.10;90.00;;;;;;1934939;74;21019;-45
2022/01/12 08:42:51;;;;;;;28.07;13.48;;;3.10;88.80;;;;;;1934706;74;21131;-44
2022/01/12 08:45:20;;;;;;;22.48;13.45;;;3.10;89.70;;;;;;1934738;74;21147;-45
2022/01/12 08:47:51;;;;;;;20.60;12.23;;;3.10;89.90;;;;;;1927414;74;21054;-45
2022/01/12 08:50:20;;;;;;;25.43;13.90;;;3.00;89.60;;;;;;1904388;75;21157;-45
2022/01/12 08:52:50;;;;;;;23.83;15.08;;;3.10;90.20;;;;;;1904254;75;21054;-44
2022/01/12 08:55:21;;;;;;;20.55;12.53;;;3.10;90.70;;;;;;1904543;75;21324;-45
2022/01/12 08:57:51;;;;;;;20.62;11.90;;;3.20;90.20;;;;;;1904324;75;21140;-46
2022/01/12 09:00:21;;;;;;;15.75;11.10;;;3.10;90.10;;;;;;1904520;75;21148;-45
2022/01/12 09:02:50;;;;;;;13.53;9.93;;;3.10;90.00;;;;;;1904556;75;21059;-46
2022/01/12 09:05:20;;;;;;;14.05;9.68;;;3.10;89.50;;;;;;1904471;74;21140;-46
2022/01/12 09:07:49;;;;;;;12.90;7.72;;;3.00;89.40;;;;;;1904331;74;21023;-45
2022/01/12 09:10:19;;;;;;;15.10;9.93;;;3.00;89.00;;;;;;1904404;75;21055;-45
2022/01/12 09:12:48;;;;;;;17.45;10.85;;;2.90;90.00;;;;;;1906148;74;21450;-46
2022/01/12 09:15:22;;;;;;;22.00;11.85;;;2.90;89.40;;;;;;1908152;75;21066;-46
2022/01/12 09:17:48;;;;;;;18.50;10.40;;;2.80;89.60;;;;;;1907937;75;21439;-48
2022/01/12 09:20:18;;;;;;;17.20;9.38;;;2.80;89.80;;;;;;1908258;75;21108;-48
2022/01/12 09:22:48;;;;;;;19.20;11.63;;;2.70;89.90;;;;;;1908137;75;21034;-46
2022/01/12 09:25:18;;;;;;;18.75;10.80;;;2.70;89.40;;;;;;1908490;75;21019;-46
2022/01/12 09:27:48;;;;;;;16.48;10.23;;;2.60;90.00;;;;;;1908102;75;21027;-48
2022/01/12 09:30:23;;;;;;;24.45;11.80;;;2.70;90.20;;;;;;1908154;75;21063;-45
2022/01/12 09:32:52;;;;;;;18.12;11.38;;;2.60;89.90;;;;;;1908253;75;21093;-47
2022/01/12 09:35:21;;;;;;;17.15;9.88;;;2.60;90.30;;;;;;1908135;75;21082;-46
2022/01/12 09:37:50;;;;;;;9.13;7.47;;;2.70;90.20;;;;;;1907633;75;21116;-44
2022/01/12 09:40:20;;;;;;;11.83;7.20;;;2.70;89.80;;;;;;1901327;75;21165;-45
2022/01/12 09:42:51;;;;;;;15.50;11.45;;;2.70;89.40;;;;;;1901346;75;21075;-44
2022/01/12 09:45:22;;;;;;;20.23;11.57;;;2.60;89.80;;;;;;1901408;75;21083;-45
2022/01/12 09:47:51;;;;;;;15.10;10.98;;;2.60;90.40;;;;;;1901139;75;21521;-45
2022/01/12 09:50:22;;;;;;;16.93;11.03;;;2.70;90.40;;;;;;1901373;75;21142;-46
2022/01/12 09:52:52;;;;;;;18.98;10.45;;;2.80;90.00;;;;;;1901317;75;21080;-46
2022/01/12 09:55:22;;;;;;;17.25;12.55;;;2.70;88.60;;;;;;1901204;75;21084;-45
2022/01/12 09:57:52;;;;;;;13.48;8.88;;;2.70;90.00;;;;;;1901114;75;21079;-46
2022/01/12 10:00:26;;;;;;;14.80;9.35;;;2.70;90.00;;;;;;1901340;75;21044;-46
2022/01/12 10:02:57;;;;;;;18.75;10.82;;;2.70;89.10;;;;;;1901503;75;21104;-45
2022/01/12 10:05:32;;;;;;;19.02;11.45;;;2.60;89.80;;;;;;1901202;75;21048;-45
2022/01/12 10:08:12;;;;;;;12.43;9.03;;;2.60;89.30;;;;;;1901281;75;21088;-45
2022/01/12 10:10:43;;;;;;;20.12;12.88;;;2.60;89.90;;;;;;1900534;75;21556;-45
2022/01/12 10:13:25;;;;;;;17.00;10.80;;;2.50;89.90;;;;;;1901283;75;21165;-45
2022/01/12 10:15:53;;;;;;;12.28;8.35;;;2.60;89.70;;;;;;1900331;75;21622;-45
2022/01/12 10:18:23;;;;;;;18.35;11.03;;;2.50;88.80;;;;;;1901047;75;21189;-47
2022/01/12 10:20:52;;;;;;;14.93;9.13;;;2.50;90.00;;;;;;1901164;75;21106;-45
2022/01/12 10:23:23;;;;;;;14.03;9.08;;;2.40;89.80;;;;;;1901124;75;21068;-46
2022/01/12 10:25:59;;;;;;;16.62;9.78;;;2.50;89.00;;;;;;1901208;75;21075;-45
2022/01/12 10:28:30;;;;;;;19.98;12.10;;;2.40;89.00;;;;;;1901129;75;21025;-45
2022/01/12 10:31:01;;;;;;;15.38;10.13;;;2.40;89.30;;;;;;1911079;74;21138;-47
2022/01/12 10:33:33;;;;;;;21.05;12.93;;;2.30;88.60;;;;;;1923803;74;21087;-46
2022/01/12 10:36:11;;;;;;;25.15;14.15;;;2.30;89.60;;;;;;1923737;74;21011;-45
2022/01/12 10:38:35;;;;;;;12.75;7.20;;;2.30;90.10;;;;;;1922512;74;21087;-45
2022/01/12 10:41:06;;;;;;;25.92;13.25;;;2.40;89.80;;;;;;1923726;74;21074;-45
2022/01/12 10:43:38;;;;;;;25.27;13.55;;;2.40;89.80;;;;;;1923756;74;21087;-46
2022/01/12 10:46:13;;;;;;;22.55;14.18;;;2.30;89.60;;;;;;1923790;74;21023;-46
2022/01/12 10:48:47;;;;;;;18.30;12.45;;;2.30;89.30;;;;;;1923834;74;21028;-46
2022/01/12 10:51:22;;;;;;;23.38;14.60;;;2.30;88.70;;;;;;1922226;74;21204;-50
2022/01/12 10:53:51;;;;;;;;;;;2.30;89.10;;;;;;1926000;74;21076;-46
2022/01/12 10:56:23;;;;;;;9.08;6.47;;;2.20;88.00;;;;;;1923673;74;20161;-46
2022/01/12 10:58:54;;;;;;;21.48;13.20;;;2.20;88.30;;;;;;1923744;74;21105;-45
2022/01/12 11:01:25;;;;;;;16.45;9.95;;;2.20;89.40;;;;;;1923772;74;21153;-47
2022/01/12 11:03:55;;;;;;;19.15;12.47;;;2.20;89.40;;;;;;1923069;74;21402;-45
2022/01/12 11:06:25;;;;;;;15.93;10.58;;;2.20;88.90;;;;;;1923780;74;21025;-45
2022/01/12 11:08:56;;;;;;;21.48;13.43;;;2.20;89.30;;;;;;1923522;74;21087;-44
2022/01/12 11:11:26;;;;;;;14.78;9.90;;;2.20;90.00;;;;;;1923871;74;21020;-45
2022/01/12 11:13:56;;;;;;;21.42;14.90;;;2.30;89.80;;;;;;1923797;74;21011;-45
2022/01/12 11:16:27;;;;;;;21.93;13.45;;;2.30;89.30;;;;;;1923899;74;21036;-45
2022/01/12 11:18:58;;;;;;;24.98;15.15;;;2.30;89.40;;;;;;1923935;74;21101;-46
2022/01/12 11:21:33;;;;;;;24.12;14.85;;;2.30;89.20;;;;;;1924110;74;21505;-44
2022/01/12 11:24:05;;;;;;;18.30;10.45;;;2.30;89.50;;;;;;1924011;74;21153;-48
2022/01/12 11:26:34;;;;;;;21.55;11.80;;;2.20;88.60;;;;;;1923874;74;21105;-46
2022/01/12 11:29:04;;;;;;;22.22;11.78;;;2.20;89.50;;;;;;1924037;74;21152;-45
2022/01/12 11:31:38;;;;;;;24.70;14.65;;;2.20;89.50;;;;;;1901551;74;21478;-45
2022/01/12 11:34:06;;;;;;;21.45;13.45;;;2.30;89.60;;;;;;1872140;77;21069;-46
2022/01/12 11:36:40;;;;;;;17.37;12.18;;;2.30;88.90;;;;;;1872115;76;21034;-45
2022/01/12 11:39:11;;;;;;;26.85;14.60;;;2.20;89.30;;;;;;1872261;75;21049;-45
2022/01/12 11:41:47;;;;;;;21.15;12.40;;;2.20;89.00;;;;;;1872092;75;21534;-44
2022/01/12 11:44:22;;;;;;;27.50;15.05;;;2.20;89.00;;;;;;1872199;75;21141;-44
2022/01/12 11:46:57;;;;;;;22.95;12.73;;;2.20;88.70;;;;;;1872303;75;21174;-44
2022/01/12 11:49:31;;;;;;;21.90;13.25;;;2.20;89.40;;;;;;1872217;76;21151;-47
2022/01/12 11:52:04;;;;;;;19.82;11.45;;;2.20;89.10;;;;;;1866016;75;21503;-46
2022/01/12 11:54:36;;;;;;;24.32;14.43;;;2.20;89.30;;;;;;1872172;75;21534;-46
2022/01/12 11:57:07;;;;;;;26.27;13.80;;;2.20;88.80;;;;;;1871931;75;21037;-48
2022/01/12 11:59:57;;;;;;;24.50;14.68;;;2.20;88.80;;;;;;1872226;77;21077;-46
2022/01/12 12:02:43;;;;;;;22.25;12.05;;;2.10;89.20;;;;;;1872111;75;21029;-47
2022/01/12 12:05:15;;;;;;;29.20;15.75;;;2.20;88.70;;;;;;1871763;75;21081;-45
2022/01/12 12:07:46;;;;;;;35.35;18.37;;;2.10;88.40;;;;;;1872199;77;21178;-46
2022/01/12 12:10:18;;;;;;;33.70;18.52;;;2.10;88.60;;;;;;1871912;76;21104;-46
2022/01/12 12:12:49;;;;;;;30.92;16.77;;;2.00;88.40;;;;;;1869203;75;21081;-46
2022/01/12 12:15:19;;;;;;;27.45;14.68;;;2.00;89.70;;;;;;1872255;76;21065;-46
2022/01/12 12:17:50;;;;;;;26.80;13.45;;;2.10;89.50;;;;;;1871913;76;21107;-46
2022/01/12 12:20:21;;;;;;;27.87;14.43;;;2.10;89.00;;;;;;1872200;76;21105;-46
2022/01/12 12:22:51;;;;;;;26.35;15.95;;;2.10;88.60;;;;;;1872290;75;21021;-46
2022/01/12 12:25:22;;;;;;;33.90;15.75;;;2.10;89.80;;;;;;1872869;75;21021;-45
2022/01/12 12:27:53;;;;;;;25.68;14.25;;;2.20;90.10;;;;;;1872804;77;21580;-46
2022/01/12 12:30:24;;;;;;;23.00;13.62;;;2.20;89.40;;;;;;1872760;75;21030;-45
2022/01/12 12:32:56;;;;;;;26.15;15.05;;;2.20;88.90;;;;;;1894481;75;21068;-45
2022/01/12 12:35:28;;;;;;;23.18;12.78;;;2.20;88.70;;;;;;1902284;75;21021;-46
2022/01/12 12:38:02;;;;;;;26.62;14.47;;;2.20;89.10;;;;;;1901577;75;21106;-46
2022/01/12 12:40:38;;;;;;;26.50;16.65;;;2.20;89.50;;;;;;1902273;75;21017;-46
2022/01/12 12:43:19;;;;;;;25.10;16.05;;;2.20;89.70;;;;;;1902155;75;21098;-46
2022/01/12 12:45:56;;;;;;;27.60;16.37;;;2.30;90.20;;;;;;1874870;76;21027;-45
2022/01/12 12:48:28;;;;;;;26.75;15.78;;;2.30;89.60;;;;;;1914808;75;21056;-46
2022/01/12 12:51:13;;;;;;;21.80;11.25;;;2.30;89.70;;;;;;1914777;74;21032;-46
2022/01/12 12:53:44;;;;;;;22.20;12.20;;;2.30;89.60;;;;;;1915108;75;21004;-44
2022/01/12 12:56:17;;;;;;;22.00;12.35;;;2.30;88.80;;;;;;1914751;75;21106;-44
2022/01/12 12:58:50;;;;;;;22.13;13.38;;;2.30;88.60;;;;;;1914815;75;21024;-44
2022/01/12 13:01:20;;;;;;;22.20;13.70;;;2.20;89.10;;;;;;1914672;75;21459;-45
2022/01/12 13:03:52;;;;;;;20.02;10.93;;;2.10;89.00;;;;;;1914759;75;21107;-44
2022/01/12 13:06:30;;;;;;;26.55;15.40;;;2.00;89.80;;;;;;1914825;75;21075;-44
2022/01/12 13:09:03;;;;;;;20.65;12.18;;;2.00;89.90;;;;;;1914907;74;21134;-44
2022/01/12 13:11:35;;;;;;;21.60;9.55;;;2.00;90.00;;;;;;1914671;75;21000;-44
2022/01/12 13:14:07;;;;;;;23.20;14.63;;;2.00;90.10;;;;;;1914830;74;21126;-44
2022/01/12 13:16:53;;;;;;;24.07;14.07;;;2.00;89.70;;;;;;1914853;75;21032;-45
2022/01/12 13:22:05;;;;;;;18.65;7.45;;;2.00;89.80;;;;;;1870384;75;21102;-44
2022/01/12 13:24:34;;;;;;;24.27;13.70;;;2.00;90.00;;;;;;1914682;75;21012;-46
2022/01/12 13:27:04;;;;;;;21.62;11.63;;;2.00;89.70;;;;;;1914803;75;21035;-44
2022/01/12 13:29:33;;;;;;;25.17;12.93;;;2.00;89.50;;;;;;1914706;75;21012;-44
2022/01/12 13:32:13;;;;;;;20.72;12.73;;;2.00;90.10;;;;;;1914690;74;21107;-44
2022/01/12 13:34:43;;;;;;;22.85;13.32;;;2.00;90.10;;;;;;1914728;75;21083;-44
2022/01/12 13:37:16;;;;;;;20.90;12.90;;;2.00;90.00;;;;;;1914761;75;21040;-44
2022/01/12 13:39:46;;;;;;;24.65;13.88;;;2.00;89.70;;;;;;1914657;75;21036;-44
2022/01/12 13:42:15;;;;;;;13.55;8.20;;;2.00;89.60;;;;;;1914759;75;21028;-44
2022/01/12 13:44:44;;;;;;;20.62;11.93;;;2.00;90.00;;;;;;1914695;75;21024;-44
2022/01/12 13:47:23;;;;;;;23.62;14.28;;;2.00;90.10;;;;;;1914645;75;21008;-45
2022/01/12 13:50:03;;;;;;;14.90;7.62;;;2.00;90.00;;;;;;1914760;75;21048;-45
2022/01/12 13:52:33;;;;;;;25.45;12.30;;;1.90;88.50;;;;;;1913409;75;21578;-46
2022/01/12 13:55:15;;;;;;;23.00;11.78;;;1.80;89.20;;;;;;1914773;75;21095;-44
2022/01/12 13:57:45;;;;;;;24.35;14.13;;;1.80;89.30;;;;;;1914633;75;21032;-44
2022/01/12 14:00:20;;;;;;;28.07;15.75;;;1.70;89.40;;;;;;1914717;75;21102;-43
2022/01/12 14:02:50;;;;;;;23.98;12.95;;;1.70;90.10;;;;;;1914675;75;21102;-44
2022/01/12 14:05:20;;;;;;;27.00;13.13;;;1.70;90.30;;;;;;1914769;75;21032;-45
2022/01/12 14:07:59;;;;;;;21.87;11.35;;;1.80;90.20;;;;;;1914807;75;21032;-44
2022/01/12 14:10:20;;;;;;;10.25;5.80;;;1.80;90.10;;;;;;1911183;75;21032;-44
2022/01/12 14:12:51;;;;;;;18.42;10.40;;;1.80;89.20;;;;;;1914748;75;21105;-44
2022/01/12 14:15:26;;;;;;;20.23;12.07;;;1.70;89.80;;;;;;1914733;75;21040;-44
2022/01/12 14:17:54;;;;;;;;;;;1.70;89.70;;;;;;1917534;75;21031;-45
2022/01/12 14:20:36;;;;;;;18.32;8.80;;;1.60;89.10;;;;;;1914636;75;20142;-44
2022/01/12 14:23:06;;;;;;;21.35;12.37;;;1.50;89.30;;;;;;1914501;75;21178;-44
2022/01/12 14:25:48;;;;;;;18.48;10.25;;;1.50;89.00;;;;;;1914752;75;21458;-45
2022/01/12 14:28:28;;;;;;;24.95;13.58;;;1.40;90.20;;;;;;1874710;76;21043;-44
2022/01/12 14:30:57;;;;;;;22.13;12.70;;;1.50;90.20;;;;;;1914690;75;21164;-44
2022/01/12 14:33:27;;;;;;;28.80;13.93;;;1.50;90.40;;;;;;1922699;74;21133;-44
2022/01/12 14:35:57;;;;;;;18.05;11.08;;;1.60;90.50;;;;;;1931063;74;21083;-44
2022/01/12 14:38:26;;;;;;;20.80;12.37;;;1.60;90.20;;;;;;1930958;74;21109;-44
2022/01/12 14:40:55;;;;;;;22.80;12.58;;;1.70;90.00;;;;;;1930873;74;21024;-44
2022/01/12 14:43:29;;;;;;;19.42;12.15;;;1.60;89.70;;;;;;1930986;74;21092;-45
2022/01/12 14:45:55;;;;;;;14.98;8.10;;;1.60;89.40;;;;;;1930497;74;21196;-44